Time;durP1;ratioP1;P1;durP2;ratioP2;P2;SDS_P1;SDS_P2;PMS_P1;PMS_P2;Temp;Humidity;BMP_temperature;BMP_pressure;BME280_temperature;BME280_humidity;BME280_pressure;Samples;Min_cycle;Max_cycle;Signal;HPM_P1;HPM_P2
2021/10/17 00:00:28;;;;;;;6.68;3.85;;;;;;;13.03;42.78;101863.88;5053102;28;20045;-59
2021/10/17 00:02:54;;;;;;;9.77;4.88;;;;;;;13.02;42.82;101866.66;5053510;28;20040;-59
2021/10/17 00:05:25;;;;;;;11.13;5.25;;;;;;;13.00;42.77;101866.78;5053449;28;20017;-59
2021/10/17 00:07:51;;;;;;;9.45;4.38;;;;;;;12.98;43.93;101860.66;5053503;28;20397;-59
2021/10/17 00:10:19;;;;;;;11.13;4.50;;;;;;;12.98;43.03;101854.44;5035677;28;20021;-59
2021/10/17 00:12:45;;;;;;;8.43;4.40;;;;;;;12.99;42.82;101865.06;5053300;28;20118;-59
2021/10/17 00:15:14;;;;;;;9.13;4.43;;;;;;;12.96;44.10;101865.31;5035551;28;20063;-59
2021/10/17 00:17:39;;;;;;;12.50;4.90;;;;;;;12.94;42.71;101856.50;5053638;28;20410;-59
2021/10/17 00:20:07;;;;;;;8.13;3.97;;;;;;;12.96;43.06;101867.13;5035594;28;20029;-59
2021/10/17 00:22:32;;;;;;;6.03;4.45;;;;;;;12.94;43.64;101858.34;5053651;28;20388;-60
2021/10/17 00:24:58;;;;;;;9.07;4.03;;;;;;;12.93;43.66;101857.47;5053512;28;20025;-59
2021/10/17 00:27:23;;;;;;;10.88;4.22;;;;;;;12.88;42.89;101848.91;5053385;28;20033;-59
2021/10/17 00:29:49;;;;;;;9.02;4.00;;;;;;;12.86;42.72;101856.25;5035441;28;20469;-59
2021/10/17 00:32:14;;;;;;;11.00;3.90;;;;;;;12.85;43.74;101865.28;5053383;28;20025;-59
2021/10/17 00:34:40;;;;;;;5.78;3.72;;;;;;;12.76;43.29;101855.22;5053140;28;20024;-59
2021/10/17 00:37:06;;;;;;;10.75;4.10;;;;;;;12.78;43.14;101858.69;5053494;28;20354;-59
2021/10/17 00:39:32;;;;;;;9.55;4.07;;;;;;;12.74;43.19;101851.81;5053210;28;20021;-58
2021/10/17 00:42:01;;;;;;;7.18;3.67;;;;;;;12.68;43.92;101853.13;5053104;28;20378;-59
2021/10/17 00:44:26;;;;;;;8.02;3.83;;;;;;;12.68;43.16;101852.28;5053090;28;20060;-60
2021/10/17 00:46:51;;;;;;;6.30;4.07;;;;;;;12.68;43.44;101854.97;5053024;28;20091;-59
2021/10/17 00:49:18;;;;;;;10.93;4.75;;;;;;;12.70;43.02;101866.47;5053324;28;20031;-59
2021/10/17 00:51:45;;;;;;;9.43;4.00;;;;;;;12.70;43.63;101866.47;5035128;28;20021;-59
2021/10/17 00:54:12;;;;;;;9.65;4.03;;;;;;;12.71;43.36;101868.16;5053327;28;20032;-59
2021/10/17 00:56:39;;;;;;;9.98;4.63;;;;;;;12.71;43.43;101854.72;5052828;28;20027;-59
2021/10/17 00:59:05;;;;;;;8.05;3.80;;;;;;;12.71;43.21;101854.72;5034842;28;20041;-60
2021/10/17 01:01:30;;;;;;;7.93;4.05;;;;;;;12.72;43.30;101859.16;5053262;28;20078;-60
2021/10/17 01:03:55;;;;;;;9.52;4.47;;;;;;;12.70;43.25;101844.97;5052929;28;20504;-59
2021/10/17 01:06:21;;;;;;;7.38;3.60;;;;;;;12.71;43.30;101852.03;5034964;28;20071;-59
2021/10/17 01:08:46;;;;;;;10.82;3.47;;;;;;;12.71;43.38;101858.28;5035175;28;20032;-59
2021/10/17 01:11:12;;;;;;;9.00;3.40;;;;;;;12.70;43.58;101855.72;5053875;28;20032;-59
2021/10/17 01:13:37;;;;;;;8.55;4.18;;;;;;;12.69;43.65;101859.38;5056458;28;20473;-59
2021/10/17 01:16:03;;;;;;;8.43;4.18;;;;;;;12.67;43.19;101853.28;5038703;28;20086;-59
2021/10/17 01:18:29;;;;;;;6.88;3.50;;;;;;;12.64;43.58;101853.50;5056942;28;20036;-59
2021/10/17 01:20:54;;;;;;;6.00;3.60;;;;;;;12.62;43.52;101852.75;5056368;28;20477;-59
2021/10/17 01:23:21;;;;;;;7.15;3.67;;;;;;;12.60;43.55;101852.00;5056637;28;20017;-59
2021/10/17 01:25:47;;;;;;;7.47;3.38;;;;;;;12.58;43.92;101845.91;5056347;28;20114;-59
2021/10/17 01:28:13;;;;;;;6.03;3.67;;;;;;;12.57;43.51;101844.19;5056175;28;20029;-59
2021/10/17 01:30:39;;;;;;;9.85;4.20;;;;;;;12.58;43.45;101840.53;5056176;28;20021;-59
2021/10/17 01:33:04;;;;;;;9.93;4.13;;;;;;;12.58;43.74;101835.16;5022225;28;20395;-59
2021/10/17 01:35:30;;;;;;;8.00;4.15;;;;;;;12.60;43.73;101830.50;5056234;28;20028;-59
2021/10/17 01:37:55;;;;;;;10.45;3.45;;;;;;;12.61;43.42;101827.72;5056449;28;20067;-59
2021/10/17 01:40:22;;;;;;;12.00;3.85;;;;;;;12.63;43.81;101817.69;5038026;28;20106;-59
2021/10/17 01:42:47;;;;;;;6.10;3.50;;;;;;;12.66;44.35;101820.16;5056266;28;20554;-59
2021/10/17 01:45:12;;;;;;;10.73;4.35;;;;;;;12.66;44.17;101816.59;5055880;28;20020;-59
2021/10/17 01:47:45;;;;;;;8.77;3.90;;;;;;;12.66;43.98;101820.16;5038349;28;20037;-59
2021/10/17 01:50:10;;;;;;;8.48;4.30;;;;;;;12.69;43.83;101816.38;5055892;28;20028;-59
2021/10/17 01:52:36;;;;;;;6.65;3.60;;;;;;;12.69;43.50;101816.38;5054659;28;20025;-59
2021/10/17 01:55:02;;;;;;;8.90;4.05;;;;;;;12.69;44.34;101811.84;5037969;28;20056;-59
2021/10/17 01:57:27;;;;;;;13.30;3.60;;;;;;;12.69;44.13;101808.31;5055675;28;20024;-59
2021/10/17 01:59:53;;;;;;;11.63;3.53;;;;;;;12.67;44.36;101816.47;5055470;28;20498;-59
2021/10/17 02:02:18;;;;;;;9.52;3.45;;;;;;;12.67;43.30;101819.16;5055605;28;20033;-60
2021/10/17 02:04:43;;;;;;;6.75;3.38;;;;;;;12.66;43.90;101817.47;5055618;28;20074;-57
2021/10/17 02:07:09;;;;;;;9.38;3.70;;;;;;;12.63;44.11;101817.69;5055368;28;20017;-59
2021/10/17 02:09:34;;;;;;;6.13;3.00;;;;;;;12.63;44.01;101817.69;5055408;28;20036;-59
2021/10/17 02:11:59;;;;;;;9.40;4.10;;;;;;;12.61;44.37;101816.09;5055517;28;20469;-59
2021/10/17 02:14:25;;;;;;;10.80;3.60;;;;;;;12.60;44.53;101823.31;5055554;28;20456;-59
2021/10/17 02:16:50;;;;;;;10.98;3.33;;;;;;;12.60;43.72;101823.31;5055395;28;20024;-59
2021/10/17 02:19:15;;;;;;;6.55;3.80;;;;;;;12.62;44.10;101826.72;5055375;28;20095;-59
2021/10/17 02:21:41;;;;;;;7.30;3.85;;;;;;;12.63;43.54;101823.06;5037472;28;20029;-59
2021/10/17 02:24:10;;;;;;;8.40;3.80;;;;;;;12.64;44.26;101813.19;5055051;28;20388;-59
2021/10/17 02:26:36;;;;;;;6.57;3.33;;;;;;;12.63;44.15;101820.38;5054832;28;20021;-59
2021/10/17 02:29:01;;;;;;;6.10;3.40;;;;;;;12.62;44.00;101820.47;5055187;28;20067;-59
2021/10/17 02:31:27;;;;;;;8.65;3.53;;;;;;;12.59;44.24;101816.19;5054897;28;20053;-59
2021/10/17 02:33:53;;;;;;;7.90;4.00;;;;;;;12.58;44.10;101813.66;5055252;28;20033;-59
2021/10/17 02:36:18;;;;;;;6.82;3.60;;;;;;;12.54;44.09;101807.66;5055079;28;20435;-59
2021/10/17 02:38:43;;;;;;;7.45;3.63;;;;;;;12.50;44.50;101810.69;5054932;28;20485;-59
2021/10/17 02:41:09;;;;;;;6.45;3.10;;;;;;;12.47;43.77;101810.94;5055177;28;20385;-59
2021/10/17 02:43:34;;;;;;;11.10;3.50;;;;;;;12.44;44.00;101813.84;5054948;28;20378;-59
2021/10/17 02:46:00;;;;;;;6.20;3.70;;;;;;;12.42;44.21;101813.13;5054720;28;20017;-59
2021/10/17 02:48:26;;;;;;;9.85;4.15;;;;;;;12.39;44.13;101816.91;5037018;28;20482;-59
2021/10/17 02:50:51;;;;;;;8.50;4.13;;;;;;;12.37;44.39;101818.00;5054727;28;20027;-59
2021/10/17 02:53:17;;;;;;;11.52;3.15;;;;;;;12.33;44.25;101809.28;5054674;28;20102;-59
2021/10/17 02:55:42;;;;;;;6.38;3.63;;;;;;;12.32;43.52;101812.94;5054733;28;20060;-57
2021/10/17 02:58:08;;;;;;;7.50;3.85;;;;;;;12.31;43.71;101807.69;5054469;28;20036;-57
2021/10/17 03:00:33;;;;;;;4.03;2.63;;;;;;;12.24;43.65;101809.97;5054593;28;20049;-57
2021/10/17 03:02:59;;;;;;;7.15;3.38;;;;;;;12.24;44.27;101808.16;5036831;28;20029;-57
2021/10/17 03:05:24;;;;;;;3.50;2.80;;;;;;;12.21;44.32;101816.44;5036799;28;20017;-57
2021/10/17 03:07:50;;;;;;;7.00;2.88;;;;;;;12.16;44.08;101807.88;5054264;28;20091;-59
2021/10/17 03:10:15;;;;;;;4.95;3.10;;;;;;;12.12;44.38;101811.75;5054244;28;20029;-59
2021/10/17 03:12:41;;;;;;;7.95;3.80;;;;;;;12.11;44.09;101818.13;5054431;28;20075;-57
2021/10/17 03:15:07;;;;;;;8.07;3.83;;;;;;;12.09;43.88;101816.50;5052970;28;20031;-57
2021/10/17 03:17:33;;;;;;;6.65;3.45;;;;;;;12.08;43.97;101807.59;5054526;28;20127;-58
2021/10/17 03:19:58;;;;;;;5.45;3.10;;;;;;;12.10;44.39;101808.34;5054083;28;20143;-59
2021/10/17 03:22:23;;;;;;;6.75;3.67;;;;;;;12.07;44.13;101807.69;5054183;28;20115;-59
2021/10/17 03:24:48;;;;;;;7.10;3.72;;;;;;;12.09;44.62;101811.97;5054292;28;20474;-59
2021/10/17 03:27:14;;;;;;;11.15;3.42;;;;;;;12.04;43.82;101807.94;5054034;28;20049;-59
2021/10/17 03:29:39;;;;;;;5.68;2.97;;;;;;;12.03;44.13;101807.06;5053782;28;20482;-57
2021/10/17 03:32:05;;;;;;;5.38;2.90;;;;;;;12.00;44.15;101807.31;5052833;28;20108;-57
2021/10/17 03:34:30;;;;;;;5.00;3.22;;;;;;;11.90;43.55;101795.53;5053446;28;20044;-57
2021/10/17 03:36:56;;;;;;;4.88;2.85;;;;;;;11.90;44.12;101806.28;5053883;28;20431;-57
2021/10/17 03:39:21;;;;;;;5.57;3.10;;;;;;;11.86;44.39;101807.50;5054057;28;20029;-57
2021/10/17 03:41:47;;;;;;;7.20;2.83;;;;;;;11.79;44.33;101798.16;5054428;28;20115;-57
2021/10/17 03:44:12;;;;;;;5.05;3.15;;;;;;;11.84;44.36;101811.22;5053710;28;20025;-57
2021/10/17 03:46:37;;;;;;;9.75;3.45;;;;;;;11.86;44.19;101815.53;5053694;28;20017;-56
2021/10/17 03:49:03;;;;;;;10.88;3.55;;;;;;;11.70;44.59;101781.91;5053579;28;20033;-57
2021/10/17 03:51:28;;;;;;;9.20;3.25;;;;;;;11.78;44.51;101790.25;5053511;28;20025;-58
2021/10/17 03:53:53;;;;;;;11.57;3.60;;;;;;;11.88;44.24;101808.22;5052801;28;20461;-57
2021/10/17 03:56:19;;;;;;;7.78;2.92;;;;;;;11.84;43.78;101822.84;5053627;28;20021;-57
2021/10/17 03:58:44;;;;;;;8.52;3.42;;;;;;;11.85;44.43;101816.50;5053603;28;20025;-56
2021/10/17 04:01:09;;;;;;;8.82;4.45;;;;;;;11.84;44.14;101819.28;5053372;28;20048;-57
2021/10/17 04:03:35;;;;;;;5.07;3.60;;;;;;;11.84;44.59;101812.09;5053473;28;20036;-57
2021/10/17 04:06:01;;;;;;;5.57;2.88;;;;;;;11.80;43.87;101810.63;5053521;28;20025;-58
2021/10/17 04:08:26;;;;;;;6.63;3.58;;;;;;;11.80;44.14;101810.63;5053797;28;20025;-58
2021/10/17 04:10:52;;;;;;;5.07;3.15;;;;;;;11.78;43.87;101815.22;5053439;28;20484;-57
2021/10/17 04:13:17;;;;;;;6.60;2.70;;;;;;;11.75;44.64;101818.16;5053576;28;20029;-56
2021/10/17 04:15:42;;;;;;;10.55;2.78;;;;;;;11.68;44.29;101809.66;5053296;28;20021;-56
2021/10/17 04:18:08;;;;;;;6.78;3.05;;;;;;;11.66;44.16;101808.94;5035664;28;20116;-57
2021/10/17 04:20:34;;;;;;;4.15;2.65;;;;;;;11.62;44.25;101811.91;5019043;28;20543;-56
2021/10/17 04:23:00;;;;;;;6.07;2.72;;;;;;;11.57;43.99;101803.34;5053465;28;20029;-57
2021/10/17 04:25:26;;;;;;;4.45;2.80;;;;;;;11.57;44.12;101804.22;5053553;28;20021;-57
2021/10/17 04:27:51;;;;;;;5.10;3.10;;;;;;;11.55;44.12;101802.63;5053334;28;20119;-57
2021/10/17 04:30:17;;;;;;;8.05;2.88;;;;;;;11.51;43.81;101804.66;5035561;28;20040;-56
2021/10/17 04:32:42;;;;;;;3.55;2.65;;;;;;;11.50;44.09;101802.94;5053192;28;20047;-57
2021/10/17 04:35:08;;;;;;;10.75;3.00;;;;;;;11.48;44.28;101806.69;5053186;28;20033;-56
2021/10/17 04:37:34;;;;;;;4.55;3.20;;;;;;;11.46;44.03;101806.81;5035433;28;20098;-57
2021/10/17 04:40:00;;;;;;;5.60;3.22;;;;;;;11.44;43.94;101813.28;5018815;28;20041;-57
2021/10/17 04:42:25;;;;;;;5.20;2.95;;;;;;;11.42;44.26;101809.81;5035495;28;20033;-56
2021/10/17 04:44:51;;;;;;;7.55;3.28;;;;;;;11.41;44.45;101811.66;5053193;28;20029;-56
2021/10/17 04:47:16;;;;;;;3.53;2.47;;;;;;;11.39;44.18;101810.91;5056020;28;20166;-56
2021/10/17 04:49:42;;;;;;;5.90;3.22;;;;;;;11.33;44.46;101800.63;5057070;28;20379;-56
2021/10/17 04:52:07;;;;;;;6.70;3.38;;;;;;;11.38;43.73;101819.94;5056981;28;20106;-56
2021/10/17 04:54:32;;;;;;;5.22;2.53;;;;;;;11.38;44.16;101813.72;5039259;28;20073;-56
2021/10/17 04:56:58;;;;;;;3.28;2.78;;;;;;;11.35;44.02;101808.56;5039073;28;20028;-57
2021/10/17 04:59:23;;;;;;;7.97;3.22;;;;;;;11.37;44.24;101817.34;5056791;28;20547;-56
2021/10/17 05:01:49;;;;;;;3.78;2.33;;;;;;;11.30;44.21;101800.84;5056914;28;20044;-58
2021/10/17 05:04:16;;;;;;;5.07;3.00;;;;;;;11.30;43.86;101806.22;5057083;28;20021;-56
2021/10/17 05:06:42;;;;;;;7.50;2.83;;;;;;;11.27;44.80;101801.06;5056620;28;20017;-56
2021/10/17 05:09:07;;;;;;;5.65;3.47;;;;;;;11.27;44.53;101808.25;5039094;28;20040;-56
2021/10/17 05:11:32;;;;;;;5.80;2.58;;;;;;;11.26;44.09;101815.44;5055498;28;20025;-56
2021/10/17 05:13:58;;;;;;;5.90;2.90;;;;;;;11.24;43.98;101811.16;5038954;28;20099;-57
2021/10/17 05:16:23;;;;;;;5.93;2.70;;;;;;;11.20;44.39;101806.97;5055306;28;20028;-57
2021/10/17 05:18:48;;;;;;;4.43;2.35;;;;;;;11.21;44.09;101811.38;5056445;28;20033;-57
2021/10/17 05:21:14;;;;;;;14.35;3.30;;;;;;;11.19;44.41;101807.94;5056489;28;20039;-56
2021/10/17 05:23:39;;;;;;;5.03;2.60;;;;;;;11.17;44.50;101805.34;5056525;28;20100;-56
2021/10/17 05:26:05;;;;;;;4.45;2.63;;;;;;;11.16;44.65;101813.53;5056597;28;20051;-57
2021/10/17 05:28:30;;;;;;;5.10;2.70;;;;;;;11.10;43.95;101791.53;5056854;28;20466;-57
2021/10/17 05:30:57;;;;;;;5.82;2.38;;;;;;;11.14;43.76;101800.22;5056146;28;20477;-57
2021/10/17 05:33:22;;;;;;;5.05;2.85;;;;;;;11.13;44.27;101803.00;5038210;28;20478;-57
2021/10/17 05:35:48;;;;;;;5.30;2.92;;;;;;;11.10;44.46;101804.97;5056275;28;20021;-57
2021/10/17 05:38:13;;;;;;;3.67;2.80;;;;;;;11.07;44.81;101797.13;5056287;28;20535;-57
2021/10/17 05:40:38;;;;;;;9.77;3.00;;;;;;;11.08;44.36;101806.88;5056485;28;20454;-56
2021/10/17 05:43:04;;;;;;;3.40;2.20;;;;;;;11.07;44.18;101805.16;5056257;28;20044;-57
2021/10/17 05:45:29;;;;;;;4.88;2.70;;;;;;;11.06;44.65;101807.94;5056170;28;20096;-57
2021/10/17 05:47:54;;;;;;;4.43;2.28;;;;;;;10.99;44.58;101801.31;5038190;28;20029;-56
2021/10/17 05:50:20;;;;;;;4.05;2.72;;;;;;;11.01;43.99;101808.28;5056034;28;20025;-57
2021/10/17 05:52:45;;;;;;;4.13;2.63;;;;;;;10.99;44.53;101807.53;5055934;28;20040;-56
2021/10/17 05:55:10;;;;;;;6.43;2.88;;;;;;;10.97;44.16;101804.09;5055983;28;20024;-56
2021/10/17 05:57:39;;;;;;;7.78;3.05;;;;;;;10.93;43.98;101807.09;5055511;28;20473;-56
2021/10/17 06:00:06;;;;;;;3.92;2.70;;;;;;;10.91;45.09;101809.91;5055886;28;20053;-56
2021/10/17 06:02:31;;;;;;;3.00;2.20;;;;;;;10.91;44.47;101812.59;5056205;28;20025;-57
2021/10/17 06:04:56;;;;;;;3.63;2.13;;;;;;;10.90;44.29;101810.00;5055904;28;20470;-56
2021/10/17 06:07:22;;;;;;;4.93;2.90;;;;;;;10.89;44.52;101817.16;5055719;28;20075;-56
2021/10/17 06:09:47;;;;;;;4.25;2.47;;;;;;;10.88;44.40;101820.84;5055886;28;20029;-56
2021/10/17 06:12:13;;;;;;;4.10;2.17;;;;;;;10.90;44.60;101821.56;5055690;28;20575;-56
2021/10/17 06:14:38;;;;;;;3.90;2.60;;;;;;;10.93;44.21;101821.38;5055469;28;20036;-57
2021/10/17 06:17:04;;;;;;;4.10;2.60;;;;;;;10.97;44.37;101836.25;5055748;28;20109;-56
2021/10/17 06:19:29;;;;;;;9.85;2.65;;;;;;;10.99;44.31;101831.66;5055641;28;20115;-56
2021/10/17 06:21:55;;;;;;;6.68;3.60;;;;;;;11.03;44.56;101840.31;5055319;28;20434;-56
2021/10/17 06:24:20;;;;;;;4.88;2.50;;;;;;;11.06;44.31;101835.63;5055255;28;20430;-56
2021/10/17 06:26:45;;;;;;;9.13;2.58;;;;;;;11.10;44.54;101839.81;5055069;28;20127;-57
2021/10/17 06:29:12;;;;;;;9.93;2.95;;;;;;;11.16;44.53;101845.69;5055297;28;20025;-57
2021/10/17 06:31:38;;;;;;;4.07;2.65;;;;;;;11.24;44.44;101840.66;5055035;28;20021;-57
2021/10/17 06:34:03;;;;;;;8.07;2.70;;;;;;;11.31;44.27;101842.78;5055170;28;20039;-56
2021/10/17 06:36:29;;;;;;;3.30;2.55;;;;;;;11.40;44.43;101839.44;5055022;28;20020;-56
2021/10/17 06:38:54;;;;;;;3.70;2.55;;;;;;;11.45;44.19;101831.06;5054991;28;20385;-56
2021/10/17 06:41:20;;;;;;;4.72;3.08;;;;;;;11.51;44.24;101836.00;5055122;28;20035;-56
2021/10/17 06:43:45;;;;;;;3.15;2.47;;;;;;;11.66;44.38;101842.94;5054688;28;20082;-56
2021/10/17 06:46:10;;;;;;;7.32;3.50;;;;;;;11.77;44.35;101848.44;5054594;28;20053;-56
2021/10/17 06:48:36;;;;;;;5.60;3.25;;;;;;;11.90;44.59;101826.88;5054602;28;20481;-58
2021/10/17 06:51:02;;;;;;;4.85;2.83;;;;;;;11.99;44.99;101819.03;5054661;28;20025;-59
2021/10/17 06:53:27;;;;;;;4.15;2.70;;;;;;;12.22;44.54;101833.44;5054809;28;20043;-58
2021/10/17 06:55:53;;;;;;;8.85;2.92;;;;;;;12.38;44.18;101838.50;5054608;28;20021;-59
2021/10/17 06:58:18;;;;;;;6.72;2.63;;;;;;;12.51;44.23;101836.56;5053209;28;20065;-58
2021/10/17 07:00:43;;;;;;;7.43;2.90;;;;;;;12.66;44.66;101833.59;5054229;28;20131;-58
2021/10/17 07:03:09;;;;;;;9.40;4.20;;;;;;;12.85;44.37;101843.78;5054590;28;20466;-58
2021/10/17 07:05:34;;;;;;;4.95;3.40;;;;;;;13.04;43.99;101852.13;5054410;28;20023;-58
2021/10/17 07:08:00;;;;;;;13.25;3.67;;;;;;;13.20;44.60;101844.59;5053999;28;20159;-58
2021/10/17 07:10:25;;;;;;;7.32;3.58;;;;;;;13.33;45.20;101839.97;5035997;28;20118;-58
2021/10/17 07:12:50;;;;;;;6.63;3.88;;;;;;;13.49;44.77;101841.41;5054403;28;20025;-59
2021/10/17 07:15:16;;;;;;;8.30;4.32;;;;;;;13.59;44.15;101834.31;5054209;28;20033;-58
2021/10/17 07:17:41;;;;;;;11.48;3.90;;;;;;;13.74;43.76;101847.38;5054272;28;20051;-59
2021/10/17 07:20:07;;;;;;;11.50;3.97;;;;;;;13.85;44.65;101846.50;5054144;28;20032;-59
2021/10/17 07:22:32;;;;;;;7.57;3.38;;;;;;;14.05;44.58;101850.25;5054289;28;20035;-59
2021/10/17 07:24:57;;;;;;;5.90;3.30;;;;;;;14.20;44.07;101847.16;5053898;28;20025;-58
2021/10/17 07:27:23;;;;;;;9.73;3.40;;;;;;;14.34;44.11;101846.91;5053918;28;20108;-58
2021/10/17 07:29:48;;;;;;;7.53;3.78;;;;;;;14.47;43.60;101835.94;5053899;28;20056;-59
2021/10/17 07:32:14;;;;;;;6.82;3.38;;;;;;;14.55;43.63;101846.94;5053901;28;20036;-59
2021/10/17 07:34:39;;;;;;;5.95;3.15;;;;;;;14.56;44.52;101854.03;5053919;28;20509;-59
2021/10/17 07:37:04;;;;;;;6.25;3.25;;;;;;;14.52;44.67;101850.75;5053838;28;20070;-58
2021/10/17 07:39:30;;;;;;;9.57;3.17;;;;;;;14.56;45.09;101841.41;5053805;28;20024;-58
2021/10/17 07:41:55;;;;;;;5.15;3.03;;;;;;;14.65;43.60;101841.63;5053948;28;20032;-58
2021/10/17 07:44:21;;;;;;;10.52;4.00;;;;;;;14.92;44.23;101855.44;5036081;28;20021;-59
2021/10/17 07:46:46;;;;;;;7.38;3.28;;;;;;;15.10;43.15;101859.25;5053533;28;20021;-59
2021/10/17 07:49:11;;;;;;;7.50;3.55;;;;;;;15.26;43.16;101859.63;5053764;28;20029;-59
2021/10/17 07:51:37;;;;;;;7.13;3.22;;;;;;;15.43;43.78;101856.31;5053586;28;20064;-59
2021/10/17 07:54:02;;;;;;;7.55;3.50;;;;;;;15.60;43.91;101850.31;5053641;28;20020;-59
2021/10/17 07:56:27;;;;;;;6.07;3.03;;;;;;;15.74;43.62;101855.28;5053389;28;20021;-59
2021/10/17 07:58:56;;;;;;;10.25;3.30;;;;;;;15.87;44.48;101851.50;5053396;28;20047;-59
2021/10/17 08:01:21;;;;;;;5.63;2.42;;;;;;;16.13;43.07;101860.81;5053398;28;20386;-59
2021/10/17 08:03:46;;;;;;;9.35;4.00;;;;;;;16.43;43.15;101852.59;5053556;28;20044;-59
2021/10/17 08:06:12;;;;;;;4.00;2.97;;;;;;;16.67;42.14;101849.47;5053382;28;20376;-59
2021/10/17 08:08:37;;;;;;;6.88;3.33;;;;;;;16.91;42.41;101840.91;5053457;28;20166;-59
2021/10/17 08:11:02;;;;;;;5.28;3.00;;;;;;;17.15;43.45;101839.41;5053498;28;20029;-59
2021/10/17 08:13:29;;;;;;;6.22;3.05;;;;;;;17.36;42.60;101839.22;5053419;28;20044;-59
2021/10/17 08:15:54;;;;;;;4.85;3.15;;;;;;;17.64;41.89;101845.56;5053331;28;20029;-59
2021/10/17 08:18:21;;;;;;;6.15;3.00;;;;;;;17.84;42.80;101842.56;5053521;28;20040;-59
2021/10/17 08:20:46;;;;;;;5.80;3.22;;;;;;;18.17;42.98;101842.94;5056003;28;20461;-59
2021/10/17 08:23:12;;;;;;;7.85;2.67;;;;;;;18.58;41.64;101836.94;5039722;28;20032;-59
2021/10/17 08:25:38;;;;;;;5.50;3.33;;;;;;;18.86;41.64;101834.97;5057584;28;20024;-59
2021/10/17 08:28:04;;;;;;;3.97;2.67;;;;;;;19.27;41.24;101833.34;5057481;28;20031;-59
2021/10/17 08:30:29;;;;;;;5.97;3.50;;;;;;;19.57;41.51;101828.28;5057560;28;20104;-59
2021/10/17 08:32:54;;;;;;;7.28;2.80;;;;;;;19.96;41.29;101842.19;5057776;28;20024;-59
2021/10/17 08:35:20;;;;;;;4.93;2.50;;;;;;;20.19;41.57;101840.56;5039673;28;20029;-59
2021/10/17 08:37:45;;;;;;;5.53;2.60;;;;;;;20.53;40.70;101836.91;5057474;28;20025;-59
2021/10/17 08:40:11;;;;;;;6.38;2.53;;;;;;;20.92;40.48;101840.63;5057431;28;20033;-60
2021/10/17 08:42:37;;;;;;;6.22;2.38;;;;;;;21.20;40.25;101825.66;5039491;28;20021;-59
2021/10/17 08:45:04;;;;;;;5.43;2.17;;;;;;;21.37;40.26;101835.47;5057332;28;20565;-59
2021/10/17 08:47:32;;;;;;;5.45;2.80;;;;;;;21.71;40.35;101831.63;5057027;28;20074;-59
2021/10/17 08:49:57;;;;;;;3.78;2.38;;;;;;;22.05;39.41;101823.97;5057269;28;20033;-59
2021/10/17 08:52:23;;;;;;;7.55;2.15;;;;;;;22.15;39.60;101824.59;5056795;28;20025;-59
2021/10/17 08:54:49;;;;;;;13.48;2.40;;;;;;;22.20;39.83;101815.84;5056800;28;20048;-59
2021/10/17 08:57:15;;;;;;;4.38;1.92;;;;;;;22.24;40.09;101811.72;5056684;28;20017;-59
2021/10/17 08:59:48;;;;;;;5.53;2.00;;;;;;;22.07;39.96;101805.53;5056492;28;20044;-59
2021/10/17 09:02:21;;;;;;;5.63;2.00;;;;;;;22.09;39.75;101806.19;5056722;28;20086;-59
2021/10/17 09:05:01;;;;;;;;;;;;;;;21.97;39.83;101808.47;5057155;28;20029;-59
2021/10/17 09:07:27;;;;;;;3.35;1.60;;;;;;;21.75;40.16;101800.22;5056652;28;19994;-59
2021/10/17 09:10:09;;;;;;;1.88;1.42;;;;;;;21.63;39.63;101807.97;5038846;28;20032;-59
2021/10/17 09:12:35;;;;;;;2.67;1.63;;;;;;;21.99;39.27;101816.50;5056702;28;20056;-59
2021/10/17 09:15:25;;;;;;;3.17;2.03;;;;;;;22.43;38.94;101812.09;5056325;28;20025;-59
2021/10/17 09:18:15;;;;;;;2.95;1.73;;;;;;;23.65;36.74;101820.81;5056249;28;20057;-59
2021/10/17 09:20:46;;;;;;;8.35;3.15;;;;;;;23.73;37.88;101826.19;5056109;28;20075;-59
2021/10/17 09:23:21;;;;;;;5.25;2.60;;;;;;;23.69;37.59;101822.16;5056213;28;20029;-59
2021/10/17 09:25:48;;;;;;;4.68;3.08;;;;;;;23.61;37.79;101829.59;5056111;28;20021;-59
2021/10/17 09:28:21;;;;;;;7.07;2.75;;;;;;;23.59;38.86;101828.97;5038392;28;20028;-59
2021/10/17 09:31:07;;;;;;;4.93;2.40;;;;;;;23.60;38.60;101834.22;5056004;28;20075;-59
2021/10/17 09:33:54;;;;;;;5.80;2.80;;;;;;;23.56;37.88;101841.09;5055279;28;20405;-59
2021/10/17 09:36:23;;;;;;;7.00;3.00;;;;;;;23.58;38.02;101847.25;5055906;28;20063;-59
2021/10/17 09:38:55;;;;;;;7.97;2.95;;;;;;;23.71;38.12;101847.44;5055897;28;20052;-59
2021/10/17 09:41:24;;;;;;;7.20;3.53;;;;;;;23.66;37.58;101838.09;5055849;28;20029;-59
2021/10/17 09:43:52;;;;;;;9.88;4.38;;;;;;;23.64;38.22;101841.03;5055828;28;20028;-59
2021/10/17 09:46:17;;;;;;;7.85;3.63;;;;;;;23.70;37.72;101845.72;5037917;28;20020;-59
2021/10/17 09:48:43;;;;;;;7.07;3.35;;;;;;;23.80;37.91;101839.09;5038216;28;20033;-59
2021/10/17 09:51:10;;;;;;;8.63;3.58;;;;;;;23.75;37.53;101843.28;5055805;28;20393;-59
2021/10/17 09:53:39;;;;;;;12.52;3.53;;;;;;;23.74;36.72;101841.56;5055708;28;20032;-59
2021/10/17 09:56:04;;;;;;;5.47;3.40;;;;;;;23.75;37.77;101843.28;5055532;28;20505;-59
2021/10/17 09:58:30;;;;;;;9.90;3.42;;;;;;;23.70;36.84;101845.72;5037683;28;20027;-59
2021/10/17 10:00:55;;;;;;;6.30;3.65;;;;;;;23.73;37.44;101847.22;5055249;28;20044;-59
2021/10/17 10:03:21;;;;;;;6.57;3.35;;;;;;;23.71;36.76;101847.44;5055556;28;20033;-59
2021/10/17 10:05:46;;;;;;;6.78;3.05;;;;;;;23.66;36.62;101846.28;5055269;28;20432;-59
2021/10/17 10:08:13;;;;;;;6.85;2.83;;;;;;;23.57;37.45;101842.81;5055390;28;20025;-60
2021/10/17 10:10:39;;;;;;;2.95;2.70;;;;;;;23.47;37.13;101834.06;5055323;28;20027;-59
2021/10/17 10:13:04;;;;;;;8.32;2.92;;;;;;;23.41;36.90;101843.00;5055241;28;20055;-59
2021/10/17 10:15:31;;;;;;;7.80;3.60;;;;;;;23.44;36.63;101845.38;5037719;28;20025;-59
2021/10/17 10:17:57;;;;;;;7.25;3.50;;;;;;;23.57;36.98;101844.69;5055462;28;20025;-59
2021/10/17 10:20:23;;;;;;;8.35;3.28;;;;;;;23.61;36.43;101852.34;5055212;28;20432;-59
2021/10/17 10:22:50;;;;;;;6.88;3.38;;;;;;;23.69;36.72;101854.97;5055044;28;20083;-59
2021/10/17 10:25:17;;;;;;;11.63;3.58;;;;;;;23.83;36.68;101850.53;5037248;28;20037;-59
2021/10/17 10:27:42;;;;;;;9.60;3.80;;;;;;;23.96;36.97;101855.31;5037171;28;20116;-59
2021/10/17 10:30:27;;;;;;;8.02;3.40;;;;;;;24.12;35.95;101849.66;5055104;28;20445;-59
2021/10/17 10:33:13;;;;;;;8.30;3.78;;;;;;;24.08;36.44;101856.53;5055106;28;20060;-59
2021/10/17 10:36:00;;;;;;;8.05;2.92;;;;;;;24.03;37.16;101853.53;5036884;28;20057;-59
2021/10/17 10:38:53;;;;;;;7.05;3.03;;;;;;;24.00;36.08;101852.00;5054966;28;20029;-59
2021/10/17 10:41:20;;;;;;;9.80;3.88;;;;;;;24.00;37.13;101845.69;5055023;28;20029;-59
2021/10/17 10:43:45;;;;;;;10.90;2.67;;;;;;;24.05;36.41;101848.69;5054644;28;20029;-59
2021/10/17 10:46:11;;;;;;;4.75;2.83;;;;;;;24.11;36.22;101847.97;5054568;28;20028;-59
2021/10/17 10:48:47;;;;;;;6.78;3.05;;;;;;;24.09;36.43;101858.22;5054538;28;20024;-63
2021/10/17 10:51:37;;;;;;;11.88;3.17;;;;;;;24.07;36.71;101846.59;5054630;28;20021;-59
2021/10/17 10:54:03;;;;;;;12.52;3.33;;;;;;;24.09;36.26;101853.63;5054662;28;20024;-60
2021/10/17 10:56:37;;;;;;;9.88;3.67;;;;;;;24.19;35.78;101853.31;5054420;28;20484;-59
2021/10/17 10:59:03;;;;;;;12.63;3.30;;;;;;;24.27;35.73;101848.56;5054312;28;20087;-60
2021/10/17 11:01:54;;;;;;;8.38;3.03;;;;;;;24.36;35.71;101838.34;5054056;28;20045;-59
2021/10/17 11:04:37;;;;;;;5.65;3.30;;;;;;;24.58;35.75;101853.75;5054157;28;20033;-59
2021/10/17 11:07:21;;;;;;;7.68;2.97;;;;;;;24.70;35.60;101843.97;5054311;28;20036;-59
2021/10/17 11:09:48;;;;;;;9.90;3.33;;;;;;;24.87;35.54;101844.56;5054199;28;20028;-59
2021/10/17 11:12:41;;;;;;;8.57;3.05;;;;;;;24.94;35.82;101844.59;5054352;28;20029;-59
2021/10/17 11:15:14;;;;;;;6.28;2.97;;;;;;;24.90;35.68;101834.03;5054107;28;20469;-59
2021/10/17 11:18:00;;;;;;;6.65;2.90;;;;;;;24.87;35.72;101845.38;5019643;28;20025;-60
2021/10/17 11:20:27;;;;;;;7.90;3.58;;;;;;;24.80;35.76;101844.50;5053901;28;20021;-60
2021/10/17 11:22:56;;;;;;;9.25;3.90;;;;;;;24.73;35.46;101843.56;5036371;28;20466;-59